createdAt,value
2022-12-20T00:14:35.694Z,2.20
2022-12-20T00:29:37.628Z,2.20
2022-12-20T00:44:39.552Z,2.20
2022-12-20T00:59:41.464Z,2.20
2022-12-20T01:14:43.357Z,2.20
2022-12-20T01:29:45.324Z,2.20
2022-12-20T01:44:57.816Z,2.20
2022-12-20T01:59:59.790Z,2.10
2022-12-20T02:15:25.642Z,2.10
2022-12-20T02:30:34.120Z,1.90
2022-12-20T02:45:37.611Z,1.90
2022-12-20T03:00:43.859Z,2.00
2022-12-20T03:15:46.135Z,2.10
2022-12-20T03:30:48.352Z,2.20
2022-12-20T03:45:50.318Z,2.30
2022-12-20T04:00:52.501Z,2.40
2022-12-20T04:16:00.008Z,2.40
2022-12-20T04:31:04.084Z,2.40
2022-12-20T04:46:06.264Z,2.20
2022-12-20T05:01:08.302Z,2.30
2022-12-20T05:16:10.440Z,2.40
2022-12-20T05:31:12.605Z,2.30
2022-12-20T05:46:14.567Z,2.20
2022-12-20T06:01:16.523Z,2.10
2022-12-20T06:16:20.784Z,1.90
2022-12-20T06:31:22.930Z,2.00
2022-12-20T06:46:25.037Z,2.20
2022-12-20T07:01:27.031Z,2.40
2022-12-20T07:16:28.977Z,2.60
2022-12-20T07:31:31.043Z,2.70
2022-12-20T07:46:33.917Z,2.80
2022-12-20T08:01:36.052Z,3.00
2022-12-20T08:16:38.205Z,2.90
2022-12-20T08:31:49.470Z,3.10
2022-12-20T08:46:52.344Z,3.30
2022-12-20T09:01:55.021Z,3.40
2022-12-20T09:16:57.116Z,3.20
2022-12-20T09:31:59.075Z,3.60
2022-12-20T09:47:22.948Z,4.00
2022-12-20T10:02:55.659Z,4.00
2022-12-20T10:18:22.588Z,4.30
2022-12-20T10:33:28.224Z,4.20
2022-12-20T10:48:42.416Z,4.00
2022-12-20T11:04:21.465Z,3.90
2022-12-20T11:19:46.908Z,4.20
2022-12-20T11:35:26.678Z,3.90
2022-12-20T11:50:43.807Z,4.30
2022-12-20T12:05:49.328Z,4.40
2022-12-20T12:21:12.816Z,4.40
2022-12-20T12:36:56.175Z,4.40
2022-12-20T12:52:00.992Z,4.20
2022-12-20T13:07:43.628Z,4.40
2022-12-20T13:23:13.324Z,4.40
2022-12-20T13:38:30.373Z,4.20
2022-12-20T13:53:32.493Z,4.00
2022-12-20T14:08:37.580Z,3.90
2022-12-20T14:23:47.713Z,3.70
2022-12-20T14:38:52.122Z,3.30
2022-12-20T14:53:56.080Z,3.00
2022-12-20T15:08:58.047Z,3.00
2022-12-20T15:24:09.354Z,2.90
2022-12-20T15:39:14.231Z,2.60
2022-12-20T15:54:33.462Z,2.70
2022-12-20T16:09:35.385Z,2.60
2022-12-20T16:24:37.304Z,2.90
2022-12-20T16:39:39.417Z,2.90
2022-12-20T16:54:41.506Z,2.80
2022-12-20T17:25:02.797Z,2.80
2022-12-20T17:40:05.828Z,2.80
2022-12-20T17:55:14.647Z,2.80
2022-12-20T18:10:16.710Z,3.00
2022-12-20T18:25:18.729Z,3.00
2022-12-20T18:40:20.652Z,2.70
2022-12-20T18:55:22.626Z,3.10
2022-12-20T19:10:25.140Z,2.80
2022-12-20T19:25:27.115Z,2.80
2022-12-20T19:40:29.084Z,2.90
2022-12-20T19:55:31.054Z,2.70
2022-12-20T20:10:33.153Z,2.80
2022-12-20T20:25:35.510Z,3.00
2022-12-20T20:40:37.961Z,3.20
2022-12-20T20:55:40.343Z,3.10
2022-12-20T21:10:43.196Z,3.10
2022-12-20T21:25:45.237Z,3.20
2022-12-20T21:40:47.173Z,3.20
2022-12-20T21:55:49.135Z,3.10
2022-12-20T22:11:04.313Z,3.20
2022-12-20T22:26:12.787Z,3.00
2022-12-20T22:41:17.352Z,2.70
2022-12-20T22:56:21.226Z,2.70
2022-12-20T23:11:44.265Z,2.70
2022-12-20T23:26:46.212Z,2.70
2022-12-20T23:41:48.189Z,2.60
2022-12-20T23:56:50.183Z,2.60
